08:04
Airports
Links
Donate
Help keep this website running!
PayPal
Bitcoin
METAR
LEBL 240730Z 33011G22KT 300V360 CAVOK 02/M02 Q1008 NOSIG
Current Weather Conditions at LEBL
VFR 07:30:00 24-02-18
Altimeter:29.76 hg
Temp:2.0°c 36°f
Dew point:-2.0°c 28°f
Wind:11 knots, 12.7 mph, 6 m/s, from 330°
Visibility:6.21 statute miles
(CAVOK)
No significant weather changes expected within 2 hours.
Past METAR reports
VFR 07:00:00 24-02-18
Altimeter:29.76 hg
Temp:2.0°c 36°f
Dew point:-2.0°c 28°f
Wind:10 knots, 11.5 mph, 5 m/s, from 330°
Visibility:6.21 statute miles
2500(FEW) A few
No significant weather changes expected within 2 hours.
LEBL 240700Z 33010G20KT 9999 FEW025 02/M02 Q1008 NOSIG
VFR 06:30:00 24-02-18
Altimeter:29.76 hg
Temp:2.0°c 36°f
Dew point:-2.0°c 28°f
Wind:9 knots, 10.4 mph, 5 m/s, from 330°
Visibility:6.21 statute miles
2500(FEW) A few
No significant weather changes expected within 2 hours.
LEBL 240630Z 33009KT 290V360 9999 FEW025 02/M02 Q1008 NOSIG
VFR 06:00:00 24-02-18
Altimeter:29.73 hg
Temp:2.0°c 36°f
Dew point:-2.0°c 28°f
Wind:11 knots, 12.7 mph, 6 m/s, from 330°
Visibility:6.21 statute miles
2500(FEW) A few
No significant weather changes expected within 2 hours.
LEBL 240600Z 33011KT 9999 FEW025 02/M02 Q1007 NOSIG
VFR 05:30:00 24-02-18
Altimeter:29.73 hg
Temp:2.0°c 36°f
Dew point:-2.0°c 28°f
Wind:8 knots, 9.2 mph, 4 m/s, from 330°
Visibility:6.21 statute miles
2500(FEW) A few
No significant weather changes expected within 2 hours.
LEBL 240530Z 33008KT 9999 FEW025 02/M02 Q1007 NOSIG
VFR 05:00:00 24-02-18
Altimeter:29.73 hg
Temp:3.0°c 37°f
Dew point:-2.0°c 28°f
Wind:9 knots, 10.4 mph, 5 m/s, from 330°
Visibility:6.21 statute miles
2500(FEW) A few
No significant weather changes expected within 2 hours.
LEBL 240500Z 33009KT 9999 FEW025 03/M02 Q1007 NOSIG
VFR 04:30:00 24-02-18
Altimeter:29.73 hg
Temp:3.0°c 37°f
Dew point:-1.0°c 30°f
Wind:8 knots, 9.2 mph, 4 m/s, from 330°
Visibility:6.21 statute miles
2500(FEW) A few
No significant weather changes expected within 2 hours.
LEBL 240430Z 33008KT 9999 FEW025 03/M01 Q1007 NOSIG
TAF
TAF LEBL 240500Z 2406/2506 33008KT 9999 FEW025 TX13/2412Z TN02/2406Z PROB30 TEMPO 2407/2411 33010G20KT BECMG 2410/2412 21010KT BECMG 2418/2420 33008KT
Forecast at LEBL
06:00 24-02-18 to 10:00 24-02-18
Wind:8 Knots from 330°
Visibility:6.21 statute miles
2500FEW A few
TEMPO 07:00 24-02-18 to 11:00 24-02-18
30%
Wind:10 Knots from 330°
BECMG 10:00 24-02-18 to 18:00 24-02-18
Wind:10 Knots from 210°
Visibility:6.21 statute miles
2500FEW A few
BECMG 18:00 24-02-18 to 06:00 25-02-18
Wind:8 Knots from 330°
Visibility:6.21 statute miles
2500FEW A few